Terminal Aerodrome Forecast
Issued by NWS

Home | Current Version | Previous Version | Text Only | Print | Product List | Glossary On
Versions: 1 2 3 4 5 6 7 8 9 10 11 12 13 14 15 16 17 18 19 20 21 22 23 24 25 26 27 28 29 30 31 32 33 34 35 36 37
000
FTUS41 KBOX 272330
TAFHYA
TAF
KHYA 272330Z 2800/2824 00000KT P6SM -SHRA OVC020
     FM280600 35005KT 1 1/2SM -SHSN OVC010
     FM280900 35005KT 4SM -SHSN OVC010
     FM281500 34012G20KT P6SM BKN015
     FM281900 35011G22KT P6SM BKN025
     FM282000 35010G21KT P6SM BKN200=

USA.gov is the U.S. government's official web portal to all federal, state and local government web resources and services.